Terminal Aerodrome Forecast
Issued by NWS

Current Version | Previous Version | Text Only | Print | Product List | Glossary On
Versions: 1 2 3 4 5 6 7 8 9 10 11 12 13 14 15
444
FTUS41 KPBZ 292335
TAFDUJ
TAF
KDUJ 292335Z 3000/3024 22004KT P6SM BKN090
     FM300800 19003KT 4SM BR SCT090
      TEMPO 3009/3012 2SM BR
     FM301400 27006KT P6SM SCT060=

USA.gov is the U.S. government's official web portal to all federal, state and local government web resources and services.